HAZ279 ROAH-RCTP
Flight info
| Callsign | HAZ279 |
|---|---|
| Flight time | 1h 20m |
| Altitude | 34000 |
| Route | GANJU Y576 LILRA R595 GRACE GRACE1A |
| Aircraft | A339/H-SADE1E2E3GHIJ3J5M1P2RWXY/LB2D1 |
Departure
| Time | 2026-04-16 11:14 |
|---|---|
| Airport | Naha International Airport (ROAH) |
Arrival
| Time | 2026-04-16 12:34 |
|---|---|
| Airport | Taiwan Taoyuan International Airport (RCTP) |
| Time | Latitude | Longitude | Altitude | Speed | Heading |
|---|---|---|---|---|---|
| 2026-04-16 10:41 | 26.21005 | 127.64965 | 21 ft | 0 kts | 88° |
| 2026-04-16 10:59 | 26.21005 | 127.64957 | 21 ft | 2 kts | 88° |
| 2026-04-16 10:59 | 26.21004 | 127.64943 | 21 ft | 2 kts | 88° |
| 2026-04-16 10:59 | 26.21004 | 127.64925 | 21 ft | 2 kts | 96° |
| 2026-04-16 10:59 | 26.21008 | 127.64909 | 21 ft | 2 kts | 120° |
| 2026-04-16 11:00 | 26.21016 | 127.64896 | 21 ft | 2 kts | 138° |
| 2026-04-16 11:00 | 26.21029 | 127.64887 | 21 ft | 2 kts | 157° |
| 2026-04-16 11:00 | 26.21043 | 127.64883 | 21 ft | 1 kts | 176° |
| 2026-04-16 11:00 | 26.21048 | 127.64882 | 21 ft | 1 kts | 179° |
| 2026-04-16 11:01 | 26.21049 | 127.64882 | 21 ft | 0 kts | 179° |
| 2026-04-16 11:03 | 26.21012 | 127.64883 | 21 ft | 5 kts | 178° |
| 2026-04-16 11:04 | 26.20965 | 127.64879 | 21 ft | 6 kts | 204° |
| 2026-04-16 11:04 | 26.20912 | 127.64819 | 21 ft | 14 kts | 237° |
| 2026-04-16 11:04 | 26.20866 | 127.64754 | 21 ft | 8 kts | 207° |
| 2026-04-16 11:04 | 26.20788 | 127.64738 | 21 ft | 15 kts | 182° |
| 2026-04-16 11:05 | 26.20674 | 127.64745 | 21 ft | 16 kts | 176° |
| 2026-04-16 11:05 | 26.20557 | 127.64754 | 21 ft | 16 kts | 177° |
| 2026-04-16 11:05 | 26.20437 | 127.64758 | 21 ft | 17 kts | 180° |
| 2026-04-16 11:05 | 26.20317 | 127.64758 | 21 ft | 17 kts | 178° |
| 2026-04-16 11:06 | 26.20195 | 127.64764 | 21 ft | 17 kts | 177° |
| 2026-04-16 11:06 | 26.20071 | 127.64772 | 21 ft | 17 kts | 177° |
| 2026-04-16 11:06 | 26.19945 | 127.64780 | 21 ft | 18 kts | 176° |
| 2026-04-16 11:06 | 26.19819 | 127.64786 | 21 ft | 18 kts | 180° |
| 2026-04-16 11:07 | 26.19692 | 127.64786 | 21 ft | 18 kts | 178° |
| 2026-04-16 11:07 | 26.19566 | 127.64793 | 21 ft | 18 kts | 176° |
| 2026-04-16 11:07 | 26.19437 | 127.64803 | 21 ft | 18 kts | 176° |
| 2026-04-16 11:07 | 26.19309 | 127.64803 | 21 ft | 18 kts | 182° |
| 2026-04-16 11:08 | 26.19183 | 127.64808 | 21 ft | 18 kts | 175° |
| 2026-04-16 11:08 | 26.19054 | 127.64819 | 21 ft | 18 kts | 177° |
| 2026-04-16 11:08 | 26.18926 | 127.64824 | 21 ft | 18 kts | 179° |
| 2026-04-16 11:08 | 26.18797 | 127.64830 | 21 ft | 18 kts | 176° |
| 2026-04-16 11:09 | 26.18668 | 127.64838 | 21 ft | 18 kts | 178° |
| 2026-04-16 11:09 | 26.18539 | 127.64842 | 21 ft | 18 kts | 178° |
| 2026-04-16 11:09 | 26.18410 | 127.64846 | 21 ft | 18 kts | 179° |
| 2026-04-16 11:09 | 26.18299 | 127.64849 | 21 ft | 9 kts | 181° |
| 2026-04-16 11:10 | 26.18256 | 127.64829 | 21 ft | 6 kts | 236° |
| 2026-04-16 11:10 | 26.18243 | 127.64774 | 20 ft | 8 kts | 266° |
| 2026-04-16 11:10 | 26.18240 | 127.64704 | 20 ft | 9 kts | 268° |
| 2026-04-16 11:10 | 26.18265 | 127.64660 | 21 ft | 6 kts | 349° |
| 2026-04-16 11:11 | 26.18302 | 127.64652 | 20 ft | 5 kts | 347° |
| 2026-04-16 11:11 | 26.18344 | 127.64647 | 20 ft | 2 kts | 357° |
| 2026-04-16 11:11 | 26.18345 | 127.64647 | 20 ft | 0 kts | 357° |
| 2026-04-16 11:12 | 26.18346 | 127.64647 | 20 ft | 2 kts | 357° |
| 2026-04-16 11:12 | 26.18437 | 127.64642 | 20 ft | 29 kts | 358° |
| 2026-04-16 11:13 | 26.18885 | 127.64623 | 21 ft | 101 kts | 358° |
| 2026-04-16 11:13 | 26.19820 | 127.64579 | 29 ft | 165 kts | 1° |
| 2026-04-16 11:13 | 26.21092 | 127.64517 | 271 ft | 198 kts | 359° |
| 2026-04-16 11:13 | 26.22602 | 127.64400 | 457 ft | 234 kts | 358° |
| 2026-04-16 11:14 | 26.24314 | 127.64321 | 865 ft | 249 kts | 1° |
| 2026-04-16 11:14 | 26.26014 | 127.64211 | 1567 ft | 247 kts | 352° |
| 2026-04-16 11:14 | 26.27636 | 127.63613 | 2290 ft | 249 kts | 333° |
| 2026-04-16 11:14 | 26.29142 | 127.62670 | 3028 ft | 249 kts | 330° |
| 2026-04-16 11:15 | 26.30622 | 127.61679 | 3761 ft | 248 kts | 329° |
| 2026-04-16 11:15 | 26.32083 | 127.60685 | 4489 ft | 249 kts | 328° |
| 2026-04-16 11:15 | 26.33564 | 127.59677 | 5219 ft | 251 kts | 328° |
| 2026-04-16 11:15 | 26.35058 | 127.58663 | 5949 ft | 253 kts | 328° |
| 2026-04-16 11:16 | 26.36545 | 127.57657 | 6668 ft | 255 kts | 328° |
| 2026-04-16 11:16 | 26.37802 | 127.56806 | 7270 ft | 256 kts | 327° |
| 2026-04-16 11:16 | 26.39321 | 127.55778 | 7995 ft | 256 kts | 327° |
| 2026-04-16 11:16 | 26.40665 | 127.54494 | 8707 ft | 255 kts | 304° |
| 2026-04-16 11:17 | 26.41385 | 127.52736 | 9420 ft | 254 kts | 282° |
| 2026-04-16 11:17 | 26.41407 | 127.50794 | 10137 ft | 254 kts | 259° |
| 2026-04-16 11:17 | 26.40725 | 127.48978 | 10764 ft | 259 kts | 237° |
| 2026-04-16 11:17 | 26.40124 | 127.48132 | 11036 ft | 264 kts | 233° |
| 2026-04-16 11:18 | 26.39257 | 127.47020 | 11400 ft | 269 kts | 232° |
| 2026-04-16 11:18 | 26.37994 | 127.45431 | 11874 ft | 276 kts | 232° |
| 2026-04-16 11:18 | 26.36710 | 127.43810 | 12340 ft | 283 kts | 232° |
| 2026-04-16 11:18 | 26.35407 | 127.42149 | 12835 ft | 290 kts | 232° |
| 2026-04-16 11:19 | 26.34031 | 127.40465 | 13319 ft | 297 kts | 229° |
| 2026-04-16 11:19 | 26.32549 | 127.38824 | 13798 ft | 304 kts | 228° |
| 2026-04-16 11:19 | 26.31014 | 127.37144 | 14277 ft | 311 kts | 228° |
| 2026-04-16 11:19 | 26.29460 | 127.35445 | 14749 ft | 317 kts | 228° |
| 2026-04-16 11:20 | 26.27884 | 127.33723 | 15209 ft | 323 kts | 227° |
| 2026-04-16 11:20 | 26.26254 | 127.31942 | 15684 ft | 329 kts | 227° |
| 2026-04-16 11:20 | 26.24610 | 127.30145 | 16166 ft | 335 kts | 227° |
| 2026-04-16 11:20 | 26.22932 | 127.28311 | 16632 ft | 341 kts | 227° |
| 2026-04-16 11:21 | 26.21217 | 127.26440 | 17096 ft | 346 kts | 227° |
| 2026-04-16 11:21 | 26.19482 | 127.24545 | 17565 ft | 352 kts | 227° |
| 2026-04-16 11:21 | 26.17738 | 127.22643 | 18035 ft | 356 kts | 227° |
| 2026-04-16 11:21 | 26.15957 | 127.20702 | 18499 ft | 361 kts | 227° |
| 2026-04-16 11:22 | 26.14178 | 127.18697 | 18971 ft | 365 kts | 231° |
| 2026-04-16 11:22 | 26.12524 | 127.16542 | 19443 ft | 367 kts | 235° |
| 2026-04-16 11:22 | 26.11031 | 127.14261 | 19914 ft | 369 kts | 239° |
| 2026-04-16 11:22 | 26.09641 | 127.11844 | 20392 ft | 372 kts | 240° |
| 2026-04-16 11:23 | 26.08261 | 127.09401 | 20857 ft | 375 kts | 241° |
| 2026-04-16 11:23 | 26.06881 | 127.06954 | 21327 ft | 378 kts | 241° |
| 2026-04-16 11:23 | 26.05468 | 127.04454 | 21807 ft | 380 kts | 241° |
| 2026-04-16 11:23 | 26.04072 | 127.01984 | 22271 ft | 382 kts | 241° |
| 2026-04-16 11:24 | 26.02643 | 126.99460 | 22748 ft | 384 kts | 241° |
| 2026-04-16 11:24 | 26.01231 | 126.96970 | 23226 ft | 385 kts | 241° |
| 2026-04-16 11:24 | 25.99800 | 126.94447 | 23705 ft | 387 kts | 241° |
| 2026-04-16 11:24 | 25.98370 | 126.91926 | 24198 ft | 387 kts | 241° |
| 2026-04-16 11:25 | 25.96928 | 126.89387 | 24695 ft | 388 kts | 241° |
| 2026-04-16 11:25 | 25.95490 | 126.86855 | 25190 ft | 388 kts | 241° |
| 2026-04-16 11:25 | 25.94061 | 126.84342 | 25684 ft | 388 kts | 241° |
| 2026-04-16 11:25 | 25.92619 | 126.81808 | 26180 ft | 388 kts | 242° |
| 2026-04-16 11:26 | 25.91172 | 126.79265 | 26680 ft | 388 kts | 242° |
| 2026-04-16 11:26 | 25.89749 | 126.76765 | 27174 ft | 387 kts | 242° |
| 2026-04-16 11:26 | 25.88312 | 126.74241 | 27676 ft | 386 kts | 242° |
| 2026-04-16 11:26 | 25.86906 | 126.71701 | 28178 ft | 383 kts | 244° |
| 2026-04-16 11:27 | 25.85605 | 126.69169 | 28675 ft | 382 kts | 244° |
| 2026-04-16 11:27 | 25.84291 | 126.66608 | 29170 ft | 380 kts | 244° |
| 2026-04-16 11:27 | 25.82995 | 126.64079 | 29660 ft | 378 kts | 244° |
| 2026-04-16 11:27 | 25.81710 | 126.61576 | 30147 ft | 375 kts | 244° |
| 2026-04-16 11:28 | 25.80430 | 126.59081 | 30636 ft | 372 kts | 244° |
| 2026-04-16 11:28 | 25.79153 | 126.56595 | 31128 ft | 369 kts | 244° |
| 2026-04-16 11:28 | 25.77882 | 126.54122 | 31621 ft | 366 kts | 244° |
| 2026-04-16 11:28 | 25.76640 | 126.51708 | 32109 ft | 362 kts | 244° |
| 2026-04-16 11:29 | 25.75390 | 126.49277 | 32450 ft | 362 kts | 244° |
| 2026-04-16 11:29 | 25.74134 | 126.46837 | 32701 ft | 365 kts | 244° |
| 2026-04-16 11:29 | 25.72872 | 126.44385 | 32976 ft | 368 kts | 244° |
| 2026-04-16 11:29 | 25.71617 | 126.41950 | 33249 ft | 370 kts | 244° |
| 2026-04-16 11:30 | 25.70323 | 126.39440 | 33528 ft | 372 kts | 243° |
| 2026-04-16 11:30 | 25.69050 | 126.36971 | 33801 ft | 374 kts | 243° |
| 2026-04-16 11:30 | 25.67755 | 126.34460 | 33955 ft | 379 kts | 243° |
| 2026-04-16 11:31 | 25.65064 | 126.29251 | 33961 ft | 397 kts | 243° |
| 2026-04-16 11:31 | 25.62280 | 126.23866 | 33961 ft | 413 kts | 243° |
| 2026-04-16 11:32 | 25.59367 | 126.18243 | 33960 ft | 429 kts | 242° |
| 2026-04-16 11:32 | 25.56339 | 126.12409 | 33959 ft | 444 kts | 242° |
| 2026-04-16 11:33 | 25.53237 | 126.06434 | 33957 ft | 453 kts | 242° |
| 2026-04-16 11:33 | 25.50083 | 126.00375 | 33963 ft | 455 kts | 242° |
| 2026-04-16 11:34 | 25.46925 | 125.94310 | 33960 ft | 455 kts | 242° |
| 2026-04-16 11:34 | 25.43767 | 125.88252 | 33961 ft | 455 kts | 242° |
| 2026-04-16 11:35 | 25.40608 | 125.82202 | 33963 ft | 456 kts | 242° |
| 2026-04-16 11:35 | 25.37439 | 125.76144 | 33954 ft | 457 kts | 242° |
| 2026-04-16 11:36 | 25.34261 | 125.70087 | 33949 ft | 456 kts | 242° |
| 2026-04-16 11:36 | 25.31043 | 125.64045 | 33948 ft | 457 kts | 242° |
| 2026-04-16 11:37 | 25.27826 | 125.58019 | 33948 ft | 457 kts | 242° |
| 2026-04-16 11:37 | 25.24598 | 125.51977 | 33946 ft | 457 kts | 242° |
| 2026-04-16 11:38 | 25.21377 | 125.45953 | 33943 ft | 456 kts | 242° |
| 2026-04-16 11:38 | 25.18152 | 125.39932 | 33945 ft | 457 kts | 242° |
| 2026-04-16 11:39 | 25.14937 | 125.33934 | 33945 ft | 457 kts | 242° |
| 2026-04-16 11:39 | 25.11690 | 125.27895 | 33944 ft | 458 kts | 241° |
| 2026-04-16 11:40 | 25.08113 | 125.22053 | 33942 ft | 460 kts | 236° |
| 2026-04-16 11:40 | 25.04304 | 125.16428 | 33940 ft | 460 kts | 236° |
| 2026-04-16 11:41 | 25.00481 | 125.10801 | 33941 ft | 460 kts | 235° |
| 2026-04-16 11:41 | 24.96459 | 125.05290 | 33936 ft | 462 kts | 233° |
| 2026-04-16 11:42 | 24.92392 | 124.99802 | 33940 ft | 462 kts | 233° |
| 2026-04-16 11:42 | 24.88534 | 124.94162 | 33942 ft | 460 kts | 241° |
| 2026-04-16 11:43 | 24.85869 | 124.87860 | 33952 ft | 457 kts | 252° |
| 2026-04-16 11:43 | 24.84524 | 124.81032 | 33953 ft | 456 kts | 264° |
| 2026-04-16 11:44 | 24.84578 | 124.74103 | 33956 ft | 456 kts | 275° |
| 2026-04-16 11:44 | 24.85376 | 124.67204 | 33951 ft | 457 kts | 276° |
| 2026-04-16 11:45 | 24.86213 | 124.60287 | 33945 ft | 457 kts | 276° |
| 2026-04-16 11:45 | 24.87049 | 124.53342 | 33944 ft | 458 kts | 276° |
| 2026-04-16 11:46 | 24.87880 | 124.46407 | 33944 ft | 458 kts | 276° |
| 2026-04-16 11:46 | 24.88705 | 124.39488 | 33945 ft | 458 kts | 276° |
| 2026-04-16 11:47 | 24.89530 | 124.32541 | 33942 ft | 458 kts | 276° |
| 2026-04-16 11:47 | 24.90344 | 124.25649 | 33946 ft | 458 kts | 276° |
| 2026-04-16 11:48 | 24.91163 | 124.18694 | 33943 ft | 458 kts | 276° |
| 2026-04-16 11:48 | 24.91974 | 124.11764 | 33939 ft | 458 kts | 276° |
| 2026-04-16 11:49 | 24.92783 | 124.04813 | 33942 ft | 459 kts | 276° |
| 2026-04-16 11:49 | 24.93585 | 123.97838 | 33940 ft | 458 kts | 276° |
| 2026-04-16 11:50 | 24.94327 | 123.90909 | 33939 ft | 458 kts | 275° |
| 2026-04-16 11:50 | 24.95061 | 123.83952 | 33940 ft | 457 kts | 275° |
| 2026-04-16 11:51 | 24.95793 | 123.76985 | 33938 ft | 457 kts | 275° |
| 2026-04-16 11:51 | 24.96520 | 123.70074 | 33937 ft | 457 kts | 275° |
| 2026-04-16 11:52 | 24.97245 | 123.63131 | 33933 ft | 457 kts | 275° |
| 2026-04-16 11:52 | 24.97966 | 123.56186 | 33932 ft | 457 kts | 275° |
| 2026-04-16 11:53 | 24.98682 | 123.49268 | 33930 ft | 457 kts | 275° |
| 2026-04-16 11:53 | 24.99396 | 123.42323 | 33928 ft | 457 kts | 275° |
| 2026-04-16 11:54 | 25.00106 | 123.35391 | 33931 ft | 456 kts | 275° |
| 2026-04-16 11:54 | 25.00808 | 123.28483 | 33929 ft | 456 kts | 275° |
| 2026-04-16 11:55 | 25.01510 | 123.21561 | 33924 ft | 456 kts | 275° |
| 2026-04-16 11:55 | 25.02213 | 123.14614 | 33925 ft | 456 kts | 275° |
| 2026-04-16 11:56 | 25.02907 | 123.07711 | 33921 ft | 455 kts | 275° |
| 2026-04-16 11:56 | 25.03599 | 123.00768 | 33923 ft | 454 kts | 275° |
| 2026-04-16 11:57 | 25.04290 | 122.93890 | 33923 ft | 454 kts | 275° |
| 2026-04-16 11:57 | 25.04982 | 122.86979 | 33923 ft | 454 kts | 275° |
| 2026-04-16 11:58 | 25.05665 | 122.80093 | 33918 ft | 454 kts | 275° |
| 2026-04-16 11:58 | 25.06346 | 122.73174 | 33924 ft | 454 kts | 275° |
| 2026-04-16 11:59 | 25.07023 | 122.66265 | 33920 ft | 455 kts | 275° |
| 2026-04-16 11:59 | 25.07694 | 122.59384 | 33916 ft | 454 kts | 275° |
| 2026-04-16 12:00 | 25.08364 | 122.52464 | 33921 ft | 455 kts | 275° |
| 2026-04-16 12:00 | 25.09032 | 122.45531 | 33917 ft | 454 kts | 275° |
| 2026-04-16 12:01 | 25.09677 | 122.38782 | 33686 ft | 434 kts | 275° |
| 2026-04-16 12:01 | 25.09991 | 122.35500 | 33489 ft | 424 kts | 275° |
| 2026-04-16 12:01 | 25.10337 | 122.32323 | 33302 ft | 414 kts | 278° |
| 2026-04-16 12:02 | 25.12084 | 122.26457 | 32941 ft | 399 kts | 293° |
| 2026-04-16 12:02 | 25.13415 | 122.23802 | 32773 ft | 391 kts | 296° |
| 2026-04-16 12:02 | 25.14786 | 122.21234 | 32610 ft | 382 kts | 297° |
| 2026-04-16 12:02 | 25.16131 | 122.18736 | 32456 ft | 374 kts | 297° |
| 2026-04-16 12:03 | 25.17433 | 122.16316 | 32306 ft | 365 kts | 296° |
| 2026-04-16 12:03 | 25.18716 | 122.13927 | 32156 ft | 356 kts | 296° |
| 2026-04-16 12:03 | 25.19956 | 122.11613 | 31963 ft | 349 kts | 296° |
| 2026-04-16 12:03 | 25.21185 | 122.09315 | 31676 ft | 345 kts | 296° |
| 2026-04-16 12:04 | 25.22392 | 122.07056 | 31344 ft | 343 kts | 296° |
| 2026-04-16 12:04 | 25.23599 | 122.04794 | 30986 ft | 340 kts | 296° |
| 2026-04-16 12:04 | 25.24787 | 122.02568 | 30643 ft | 338 kts | 296° |
| 2026-04-16 12:04 | 25.25984 | 122.00328 | 30296 ft | 336 kts | 296° |
| 2026-04-16 12:05 | 25.27167 | 121.98109 | 29960 ft | 334 kts | 296° |
| 2026-04-16 12:05 | 25.28326 | 121.95934 | 29629 ft | 331 kts | 296° |
| 2026-04-16 12:05 | 25.29496 | 121.93741 | 29282 ft | 329 kts | 296° |
| 2026-04-16 12:05 | 25.30656 | 121.91566 | 28935 ft | 327 kts | 296° |
| 2026-04-16 12:06 | 25.31795 | 121.89426 | 28593 ft | 325 kts | 296° |
| 2026-04-16 12:06 | 25.32948 | 121.87259 | 28260 ft | 323 kts | 296° |
| 2026-04-16 12:06 | 25.34070 | 121.85155 | 27927 ft | 321 kts | 296° |
| 2026-04-16 12:06 | 25.35193 | 121.83043 | 27609 ft | 318 kts | 296° |
| 2026-04-16 12:07 | 25.36314 | 121.80933 | 27271 ft | 316 kts | 296° |
| 2026-04-16 12:07 | 25.37415 | 121.78860 | 26937 ft | 314 kts | 296° |
| 2026-04-16 12:07 | 25.38520 | 121.76778 | 26613 ft | 312 kts | 296° |
| 2026-04-16 12:07 | 25.39618 | 121.74709 | 26280 ft | 310 kts | 296° |
| 2026-04-16 12:08 | 25.40702 | 121.72666 | 25945 ft | 308 kts | 296° |
| 2026-04-16 12:08 | 25.41782 | 121.70628 | 25612 ft | 306 kts | 296° |
| 2026-04-16 12:08 | 25.42847 | 121.68619 | 25284 ft | 305 kts | 296° |
| 2026-04-16 12:08 | 25.43920 | 121.66595 | 24944 ft | 303 kts | 296° |
| 2026-04-16 12:09 | 25.44986 | 121.64582 | 24617 ft | 302 kts | 296° |
| 2026-04-16 12:09 | 25.46039 | 121.62594 | 24316 ft | 299 kts | 296° |
| 2026-04-16 12:09 | 25.46908 | 121.60544 | 23973 ft | 293 kts | 282° |
| 2026-04-16 12:09 | 25.47167 | 121.58330 | 23635 ft | 289 kts | 267° |
| 2026-04-16 12:10 | 25.46867 | 121.56263 | 23323 ft | 288 kts | 253° |
| 2026-04-16 12:10 | 25.46015 | 121.54270 | 23009 ft | 290 kts | 238° |
| 2026-04-16 12:10 | 25.44760 | 121.52531 | 22706 ft | 290 kts | 234° |
| 2026-04-16 12:10 | 25.43456 | 121.50839 | 22414 ft | 288 kts | 234° |
| 2026-04-16 12:11 | 25.42151 | 121.49155 | 22084 ft | 288 kts | 233° |
| 2026-04-16 12:11 | 25.40854 | 121.47484 | 21732 ft | 288 kts | 233° |
| 2026-04-16 12:11 | 25.39558 | 121.45787 | 21380 ft | 288 kts | 238° |
| 2026-04-16 12:11 | 25.38764 | 121.43810 | 21018 ft | 283 kts | 262° |
| 2026-04-16 12:12 | 25.38788 | 121.41646 | 20665 ft | 283 kts | 282° |
| 2026-04-16 12:12 | 25.39542 | 121.39642 | 20317 ft | 289 kts | 301° |
| 2026-04-16 12:12 | 25.40962 | 121.38052 | 19971 ft | 298 kts | 322° |
| 2026-04-16 12:12 | 25.42892 | 121.37155 | 19629 ft | 308 kts | 342° |
| 2026-04-16 12:13 | 25.45066 | 121.37090 | 19275 ft | 322 kts | 6° |
| 2026-04-16 12:13 | 25.47161 | 121.38038 | 18932 ft | 333 kts | 27° |
| 2026-04-16 12:13 | 25.49129 | 121.39440 | 18587 ft | 335 kts | 28° |
| 2026-04-16 12:13 | 25.51073 | 121.40861 | 18242 ft | 335 kts | 28° |
| 2026-04-16 12:14 | 25.53032 | 121.42301 | 17889 ft | 337 kts | 32° |
| 2026-04-16 12:14 | 25.54625 | 121.44215 | 17523 ft | 348 kts | 60° |
| 2026-04-16 12:14 | 25.55278 | 121.46802 | 17178 ft | 352 kts | 90° |
| 2026-04-16 12:14 | 25.54806 | 121.49416 | 16830 ft | 348 kts | 120° |
| 2026-04-16 12:15 | 25.53350 | 121.51455 | 16478 ft | 336 kts | 149° |
| 2026-04-16 12:15 | 25.51283 | 121.52537 | 16126 ft | 323 kts | 173° |
| 2026-04-16 12:15 | 25.49115 | 121.52630 | 15770 ft | 310 kts | 196° |
| 2026-04-16 12:15 | 25.47138 | 121.51799 | 15413 ft | 299 kts | 218° |
| 2026-04-16 12:16 | 25.45612 | 121.50272 | 15061 ft | 294 kts | 231° |
| 2026-04-16 12:16 | 25.44214 | 121.48608 | 14711 ft | 295 kts | 231° |
| 2026-04-16 12:16 | 25.42827 | 121.46958 | 14363 ft | 296 kts | 230° |
| 2026-04-16 12:16 | 25.41416 | 121.45286 | 14009 ft | 296 kts | 230° |
| 2026-04-16 12:17 | 25.40012 | 121.43624 | 13657 ft | 297 kts | 230° |
| 2026-04-16 12:17 | 25.38605 | 121.41961 | 13294 ft | 298 kts | 230° |
| 2026-04-16 12:17 | 25.37194 | 121.40295 | 12944 ft | 298 kts | 230° |
| 2026-04-16 12:17 | 25.35764 | 121.38611 | 12574 ft | 298 kts | 230° |
| 2026-04-16 12:18 | 25.34354 | 121.36948 | 12221 ft | 299 kts | 230° |
| 2026-04-16 12:18 | 25.32926 | 121.35263 | 11852 ft | 299 kts | 230° |
| 2026-04-16 12:18 | 25.31499 | 121.33585 | 11617 ft | 295 kts | 229° |
| 2026-04-16 12:18 | 25.30115 | 121.31960 | 11633 ft | 293 kts | 229° |
| 2026-04-16 12:19 | 25.28698 | 121.30290 | 11626 ft | 294 kts | 229° |
| 2026-04-16 12:19 | 25.27328 | 121.28680 | 11625 ft | 282 kts | 229° |
| 2026-04-16 12:19 | 25.26015 | 121.27139 | 11435 ft | 278 kts | 230° |
| 2026-04-16 12:19 | 25.24673 | 121.25562 | 11068 ft | 280 kts | 229° |
| 2026-04-16 12:20 | 25.23335 | 121.23988 | 10707 ft | 282 kts | 229° |
| 2026-04-16 12:20 | 25.21998 | 121.22418 | 10353 ft | 284 kts | 230° |
| 2026-04-16 12:20 | 25.20640 | 121.20824 | 9997 ft | 286 kts | 230° |
| 2026-04-16 12:20 | 25.19271 | 121.19216 | 9649 ft | 287 kts | 229° |
| 2026-04-16 12:21 | 25.17905 | 121.17615 | 9403 ft | 284 kts | 229° |
| 2026-04-16 12:21 | 25.16564 | 121.16042 | 9162 ft | 281 kts | 229° |
| 2026-04-16 12:21 | 25.15233 | 121.14481 | 8925 ft | 279 kts | 229° |
| 2026-04-16 12:21 | 25.13916 | 121.12938 | 8691 ft | 276 kts | 229° |
| 2026-04-16 12:22 | 25.12609 | 121.11407 | 8551 ft | 269 kts | 229° |
| 2026-04-16 12:22 | 25.11348 | 121.09905 | 8543 ft | 258 kts | 231° |
| 2026-04-16 12:22 | 25.10202 | 121.08456 | 8541 ft | 247 kts | 231° |
| 2026-04-16 12:22 | 25.09100 | 121.07059 | 8544 ft | 236 kts | 231° |
| 2026-04-16 12:23 | 25.08026 | 121.05691 | 8548 ft | 235 kts | 231° |
| 2026-04-16 12:23 | 25.06956 | 121.04329 | 8549 ft | 236 kts | 231° |
| 2026-04-16 12:23 | 25.05880 | 121.02962 | 8549 ft | 235 kts | 231° |
| 2026-04-16 12:23 | 25.04811 | 121.01605 | 8550 ft | 235 kts | 231° |
| 2026-04-16 12:24 | 25.03736 | 121.00239 | 8553 ft | 235 kts | 231° |
| 2026-04-16 12:24 | 25.03224 | 120.99590 | 8548 ft | 235 kts | 231° |
| 2026-04-16 12:24 | 25.02276 | 120.98388 | 8539 ft | 234 kts | 231° |
| 2026-04-16 12:24 | 25.01218 | 120.97047 | 8432 ft | 230 kts | 231° |
| 2026-04-16 12:25 | 25.00181 | 120.95734 | 8323 ft | 224 kts | 231° |
| 2026-04-16 12:25 | 24.99163 | 120.94445 | 8199 ft | 219 kts | 231° |
| 2026-04-16 12:25 | 24.98173 | 120.93190 | 8093 ft | 213 kts | 231° |
| 2026-04-16 12:25 | 24.97197 | 120.91953 | 7927 ft | 211 kts | 230° |
| 2026-04-16 12:26 | 24.96241 | 120.90742 | 7730 ft | 210 kts | 230° |
| 2026-04-16 12:26 | 24.95269 | 120.89510 | 7425 ft | 215 kts | 230° |
| 2026-04-16 12:26 | 24.94285 | 120.88264 | 7079 ft | 221 kts | 229° |
| 2026-04-16 12:26 | 24.93052 | 120.87205 | 6687 ft | 227 kts | 204° |
| 2026-04-16 12:27 | 24.91495 | 120.86855 | 6324 ft | 233 kts | 180° |
| 2026-04-16 12:27 | 24.89912 | 120.87286 | 5947 ft | 241 kts | 155° |
| 2026-04-16 12:27 | 24.88602 | 120.88480 | 5485 ft | 252 kts | 128° |
| 2026-04-16 12:27 | 24.87910 | 120.90276 | 4873 ft | 263 kts | 98° |
| 2026-04-16 12:28 | 24.88099 | 120.92291 | 4280 ft | 270 kts | 68° |
| 2026-04-16 12:28 | 24.89146 | 120.93954 | 3899 ft | 263 kts | 43° |
| 2026-04-16 12:28 | 24.90403 | 120.95367 | 3638 ft | 253 kts | 54° |
| 2026-04-16 12:28 | 24.91132 | 120.97086 | 3376 ft | 251 kts | 83° |
| 2026-04-16 12:29 | 24.91182 | 120.99025 | 3122 ft | 250 kts | 93° |
| 2026-04-16 12:29 | 24.91108 | 121.00929 | 2859 ft | 248 kts | 94° |
| 2026-04-16 12:29 | 24.91075 | 121.02824 | 2617 ft | 248 kts | 80° |
| 2026-04-16 12:29 | 24.91738 | 121.04506 | 2538 ft | 239 kts | 51° |
| 2026-04-16 12:30 | 24.92864 | 121.05852 | 2546 ft | 235 kts | 44° |
| 2026-04-16 12:30 | 24.94026 | 121.07128 | 2538 ft | 236 kts | 45° |
| 2026-04-16 12:30 | 24.95145 | 121.08440 | 2510 ft | 237 kts | 47° |
| 2026-04-16 12:30 | 24.96231 | 121.09790 | 2369 ft | 227 kts | 48° |
| 2026-04-16 12:31 | 24.97228 | 121.11066 | 2164 ft | 215 kts | 48° |
| 2026-04-16 12:31 | 24.98177 | 121.12284 | 1966 ft | 205 kts | 47° |
| 2026-04-16 12:31 | 24.99083 | 121.13443 | 1792 ft | 194 kts | 47° |
| 2026-04-16 12:31 | 24.99956 | 121.14554 | 1739 ft | 186 kts | 47° |
| 2026-04-16 12:32 | 25.00754 | 121.15571 | 1670 ft | 171 kts | 47° |
| 2026-04-16 12:32 | 25.01536 | 121.16564 | 1473 ft | 170 kts | 47° |
| 2026-04-16 12:32 | 25.02287 | 121.17520 | 1254 ft | 168 kts | 47° |
| 2026-04-16 12:32 | 25.03047 | 121.18484 | 1036 ft | 167 kts | 47° |
| 2026-04-16 12:33 | 25.03814 | 121.19469 | 830 ft | 167 kts | 47° |
| 2026-04-16 12:33 | 25.04575 | 121.20431 | 609 ft | 165 kts | 48° |
| 2026-04-16 12:33 | 25.05327 | 121.21388 | 384 ft | 165 kts | 48° |
| 2026-04-16 12:33 | 25.06078 | 121.22343 | 187 ft | 163 kts | 48° |
| 2026-04-16 12:34 | 25.06798 | 121.23248 | 125 ft | 144 kts | 49° |
| 2026-04-16 12:34 | 25.07292 | 121.23878 | 125 ft | 78 kts | 49° |
| 2026-04-16 12:34 | 25.07561 | 121.24223 | 125 ft | 42 kts | 49° |
| 2026-04-16 12:34 | 25.07709 | 121.24412 | 125 ft | 23 kts | 50° |
| 2026-04-16 12:35 | 25.07791 | 121.24517 | 125 ft | 15 kts | 49° |
| 2026-04-16 12:35 | 25.07866 | 121.24593 | 125 ft | 14 kts | 20° |
| 2026-04-16 12:35 | 25.07916 | 121.24578 | 125 ft | 5 kts | 327° |
| 2026-04-16 12:35 | 25.07953 | 121.24549 | 125 ft | 7 kts | 321° |
| 2026-04-16 12:36 | 25.07996 | 121.24509 | 125 ft | 8 kts | 319° |
| 2026-04-16 12:36 | 25.08047 | 121.24460 | 125 ft | 10 kts | 319° |
| 2026-04-16 12:36 | 25.08091 | 121.24417 | 125 ft | 7 kts | 319° |
| 2026-04-16 12:36 | 25.08129 | 121.24370 | 125 ft | 8 kts | 291° |
| 2026-04-16 12:37 | 25.08123 | 121.24306 | 125 ft | 9 kts | 237° |
| 2026-04-16 12:37 | 25.08083 | 121.24252 | 125 ft | 10 kts | 230° |
| 2026-04-16 12:37 | 25.08031 | 121.24185 | 125 ft | 11 kts | 229° |
| 2026-04-16 12:37 | 25.08003 | 121.24135 | 125 ft | 6 kts | 265° |
| 2026-04-16 12:38 | 25.08018 | 121.24088 | 125 ft | 6 kts | 311° |
| 2026-04-16 12:38 | 25.08046 | 121.24057 | 125 ft | 5 kts | 316° |
| 2026-04-16 12:38 | 25.08066 | 121.24037 | 125 ft | 6 kts | 318° |
| 2026-04-16 12:38 | 25.08070 | 121.24033 | 125 ft | 0 kts | 318° |